sensor_id;sensor_type;location;lat;lon;timestamp;temperature;humidity
8152;DHT22;4117;53.622;9.958;2023-05-10T00:02:01;14.40;1.00
8152;DHT22;4117;53.622;9.958;2023-05-10T00:04:28;14.30;1.00
8152;DHT22;4117;53.622;9.958;2023-05-10T00:06:55;14.40;1.00
8152;DHT22;4117;53.622;9.958;2023-05-10T00:09:23;14.30;1.00
8152;DHT22;4117;53.622;9.958;2023-05-10T00:11:51;14.30;1.00
8152;DHT22;4117;53.622;9.958;2023-05-10T00:14:18;14.30;1.00
8152;DHT22;4117;53.622;9.958;2023-05-10T00:16:45;14.20;1.00
8152;DHT22;4117;53.622;9.958;2023-05-10T00:19:12;14.20;1.00
8152;DHT22;4117;53.622;9.958;2023-05-10T00:21:39;14.30;1.00
8152;DHT22;4117;53.622;9.958;2023-05-10T00:24:06;14.20;1.00
8152;DHT22;4117;53.622;9.958;2023-05-10T00:26:34;14.20;1.00
8152;DHT22;4117;53.622;9.958;2023-05-10T00:29:01;14.20;1.00
8152;DHT22;4117;53.622;9.958;2023-05-10T00:31:28;14.10;1.00
8152;DHT22;4117;53.622;9.958;2023-05-10T00:33:55;14.10;1.00
8152;DHT22;4117;53.622;9.958;2023-05-10T00:36:22;14.10;1.00
8152;DHT22;4117;53.622;9.958;2023-05-10T00:38:49;14.10;1.00
8152;DHT22;4117;53.622;9.958;2023-05-10T00:41:16;14.00;1.00
8152;DHT22;4117;53.622;9.958;2023-05-10T00:43:44;14.00;1.00
8152;DHT22;4117;53.622;9.958;2023-05-10T00:46:11;14.00;1.00
8152;DHT22;4117;53.622;9.958;2023-05-10T00:48:39;14.00;1.00
8152;DHT22;4117;53.622;9.958;2023-05-10T00:51:06;14.00;1.00
8152;DHT22;4117;53.622;9.958;2023-05-10T00:53:35;14.00;1.00
8152;DHT22;4117;53.622;9.958;2023-05-10T00:56:03;13.90;1.00
8152;DHT22;4117;53.622;9.958;2023-05-10T00:58:31;13.90;1.00
8152;DHT22;4117;53.622;9.958;2023-05-10T01:01:00;13.90;1.00
8152;DHT22;4117;53.622;9.958;2023-05-10T01:03:27;13.90;1.00
8152;DHT22;4117;53.622;9.958;2023-05-10T01:05:55;13.90;1.00
8152;DHT22;4117;53.622;9.958;2023-05-10T01:08:22;13.80;1.00
8152;DHT22;4117;53.622;9.958;2023-05-10T01:10:49;13.80;1.00
8152;DHT22;4117;53.622;9.958;2023-05-10T01:13:23;13.80;1.00
8152;DHT22;4117;53.622;9.958;2023-05-10T01:15:54;13.80;1.00
8152;DHT22;4117;53.622;9.958;2023-05-10T01:18:23;13.80;1.00
8152;DHT22;4117;53.622;9.958;2023-05-10T01:21:06;13.70;1.00
8152;DHT22;4117;53.622;9.958;2023-05-10T01:23:50;13.70;1.00
8152;DHT22;4117;53.622;9.958;2023-05-10T01:29:40;13.60;1.00
8152;DHT22;4117;53.622;9.958;2023-05-10T01:32:21;13.60;1.00
8152;DHT22;4117;53.622;9.958;2023-05-10T01:34:56;13.50;1.00
8152;DHT22;4117;53.622;9.958;2023-05-10T01:37:31;13.50;1.00
8152;DHT22;4117;53.622;9.958;2023-05-10T01:40:05;13.50;1.00
8152;DHT22;4117;53.622;9.958;2023-05-10T01:42:42;13.50;1.00
8152;DHT22;4117;53.622;9.958;2023-05-10T01:45:19;13.50;1.00
8152;DHT22;4117;53.622;9.958;2023-05-10T01:47:52;13.40;1.00
8152;DHT22;4117;53.622;9.958;2023-05-10T01:50:27;13.40;1.00
8152;DHT22;4117;53.622;9.958;2023-05-10T01:52:58;13.30;1.00
8152;DHT22;4117;53.622;9.958;2023-05-10T01:55:28;13.30;1.00
8152;DHT22;4117;53.622;9.958;2023-05-10T01:58:02;13.30;1.00
8152;DHT22;4117;53.622;9.958;2023-05-10T02:00:32;13.20;1.00
8152;DHT22;4117;53.622;9.958;2023-05-10T02:05:46;13.20;1.00
8152;DHT22;4117;53.622;9.958;2023-05-10T02:08:15;13.30;1.00
8152;DHT22;4117;53.622;9.958;2023-05-10T02:10:45;13.20;1.00
8152;DHT22;4117;53.622;9.958;2023-05-10T02:13:14;13.10;1.00
8152;DHT22;4117;53.622;9.958;2023-05-10T02:15:41;13.10;1.00
8152;DHT22;4117;53.622;9.958;2023-05-10T02:18:10;13.10;1.00
8152;DHT22;4117;53.622;9.958;2023-05-10T02:20:39;13.10;1.00
8152;DHT22;4117;53.622;9.958;2023-05-10T02:23:09;13.00;1.00
8152;DHT22;4117;53.622;9.958;2023-05-10T02:25:37;13.00;1.00
8152;DHT22;4117;53.622;9.958;2023-05-10T02:28:06;13.00;1.00
8152;DHT22;4117;53.622;9.958;2023-05-10T02:30:34;13.00;1.00
8152;DHT22;4117;53.622;9.958;2023-05-10T02:33:01;13.00;1.00
8152;DHT22;4117;53.622;9.958;2023-05-10T02:35:31;12.90;1.00
8152;DHT22;4117;53.622;9.958;2023-05-10T02:37:59;12.90;1.00
8152;DHT22;4117;53.622;9.958;2023-05-10T02:40:28;12.90;1.00
8152;DHT22;4117;53.622;9.958;2023-05-10T02:42:57;12.80;1.00
8152;DHT22;4117;53.622;9.958;2023-05-10T02:45:29;12.80;1.00
8152;DHT22;4117;53.622;9.958;2023-05-10T02:47:56;12.80;1.00
8152;DHT22;4117;53.622;9.958;2023-05-10T02:50:26;12.80;1.00
8152;DHT22;4117;53.622;9.958;2023-05-10T02:53:00;12.70;1.00
8152;DHT22;4117;53.622;9.958;2023-05-10T02:55:32;12.70;1.00
8152;DHT22;4117;53.622;9.958;2023-05-10T02:58:02;12.70;1.00
8152;DHT22;4117;53.622;9.958;2023-05-10T03:00:29;12.60;1.00
8152;DHT22;4117;53.622;9.958;2023-05-10T03:02:56;12.60;1.00
8152;DHT22;4117;53.622;9.958;2023-05-10T03:05:23;12.60;1.00
8152;DHT22;4117;53.622;9.958;2023-05-10T03:07:51;12.50;1.00
8152;DHT22;4117;53.622;9.958;2023-05-10T03:10:19;12.60;1.00
8152;DHT22;4117;53.622;9.958;2023-05-10T03:12:57;12.60;1.00
8152;DHT22;4117;53.622;9.958;2023-05-10T03:15:37;12.60;1.00
8152;DHT22;4117;53.622;9.958;2023-05-10T03:18:10;12.50;1.00
8152;DHT22;4117;53.622;9.958;2023-05-10T03:20:42;12.50;1.00
8152;DHT22;4117;53.622;9.958;2023-05-10T03:23:13;12.50;1.00
8152;DHT22;4117;53.622;9.958;2023-05-10T03:25:44;12.40;1.00
8152;DHT22;4117;53.622;9.958;2023-05-10T03:28:16;12.40;1.00
8152;DHT22;4117;53.622;9.958;2023-05-10T03:30:44;12.40;1.00
8152;DHT22;4117;53.622;9.958;2023-05-10T03:33:12;12.40;1.00
8152;DHT22;4117;53.622;9.958;2023-05-10T03:35:39;12.40;1.00
8152;DHT22;4117;53.622;9.958;2023-05-10T03:38:06;12.30;1.00
8152;DHT22;4117;53.622;9.958;2023-05-10T03:40:33;12.40;1.00
8152;DHT22;4117;53.622;9.958;2023-05-10T03:43:00;12.40;1.00
8152;DHT22;4117;53.622;9.958;2023-05-10T03:45:29;12.40;1.00
8152;DHT22;4117;53.622;9.958;2023-05-10T03:47:57;12.30;1.00
8152;DHT22;4117;53.622;9.958;2023-05-10T03:50:24;12.30;1.00
8152;DHT22;4117;53.622;9.958;2023-05-10T03:52:51;12.30;1.00
8152;DHT22;4117;53.622;9.958;2023-05-10T03:55:18;12.20;1.00
8152;DHT22;4117;53.622;9.958;2023-05-10T03:57:45;12.20;1.00
8152;DHT22;4117;53.622;9.958;2023-05-10T04:00:15;12.20;1.00
8152;DHT22;4117;53.622;9.958;2023-05-10T04:02:44;12.20;1.00
8152;DHT22;4117;53.622;9.958;2023-05-10T04:05:11;12.20;1.00
8152;DHT22;4117;53.622;9.958;2023-05-10T04:07:38;12.20;1.00
8152;DHT22;4117;53.622;9.958;2023-05-10T04:10:05;12.20;1.00
8152;DHT22;4117;53.622;9.958;2023-05-10T04:12:32;12.20;1.00
8152;DHT22;4117;53.622;9.958;2023-05-10T04:14:59;12.20;1.00
8152;DHT22;4117;53.622;9.958;2023-05-10T04:17:26;12.20;1.00
8152;DHT22;4117;53.622;9.958;2023-05-10T04:19:55;12.20;1.00
8152;DHT22;4117;53.622;9.958;2023-05-10T04:22:22;12.10;1.00
8152;DHT22;4117;53.622;9.958;2023-05-10T04:24:49;12.20;1.00
8152;DHT22;4117;53.622;9.958;2023-05-10T04:27:16;12.10;1.00
8152;DHT22;4117;53.622;9.958;2023-05-10T04:29:43;12.10;1.00
8152;DHT22;4117;53.622;9.958;2023-05-10T04:32:10;12.20;1.00
8152;DHT22;4117;53.622;9.958;2023-05-10T04:34:37;12.20;1.00
8152;DHT22;4117;53.622;9.958;2023-05-10T04:37:05;12.20;1.00
8152;DHT22;4117;53.622;9.958;2023-05-10T04:39:32;12.20;1.00
8152;DHT22;4117;53.622;9.958;2023-05-10T04:42:00;12.10;1.00
8152;DHT22;4117;53.622;9.958;2023-05-10T04:44:28;12.20;1.00
8152;DHT22;4117;53.622;9.958;2023-05-10T04:46:55;12.20;1.00
8152;DHT22;4117;53.622;9.958;2023-05-10T04:49:22;12.20;1.00
8152;DHT22;4117;53.622;9.958;2023-05-10T04:51:49;12.20;1.00
8152;DHT22;4117;53.622;9.958;2023-05-10T04:54:17;12.20;1.00
8152;DHT22;4117;53.622;9.958;2023-05-10T04:56:44;12.20;1.00
8152;DHT22;4117;53.622;9.958;2023-05-10T04:59:11;12.30;1.00
8152;DHT22;4117;53.622;9.958;2023-05-10T05:01:39;12.30;1.00
8152;DHT22;4117;53.622;9.958;2023-05-10T05:04:06;12.30;1.00
8152;DHT22;4117;53.622;9.958;2023-05-10T05:06:33;12.40;1.00
8152;DHT22;4117;53.622;9.958;2023-05-10T05:09:00;12.40;1.00
8152;DHT22;4117;53.622;9.958;2023-05-10T05:11:28;12.40;1.00
8152;DHT22;4117;53.622;9.958;2023-05-10T05:13:55;12.50;1.00
8152;DHT22;4117;53.622;9.958;2023-05-10T05:16:24;12.60;1.00
8152;DHT22;4117;53.622;9.958;2023-05-10T05:18:51;12.60;1.00
8152;DHT22;4117;53.622;9.958;2023-05-10T05:21:19;12.70;1.00
8152;DHT22;4117;53.622;9.958;2023-05-10T05:23:47;12.80;1.00
8152;DHT22;4117;53.622;9.958;2023-05-10T05:26:14;12.80;1.00
8152;DHT22;4117;53.622;9.958;2023-05-10T05:28:42;12.90;1.00
8152;DHT22;4117;53.622;9.958;2023-05-10T05:31:09;12.90;1.00
8152;DHT22;4117;53.622;9.958;2023-05-10T05:33:37;12.90;1.00
8152;DHT22;4117;53.622;9.958;2023-05-10T05:36:04;13.00;1.00
8152;DHT22;4117;53.622;9.958;2023-05-10T05:38:32;13.00;1.00
8152;DHT22;4117;53.622;9.958;2023-05-10T05:40:59;13.10;1.00
8152;DHT22;4117;53.622;9.958;2023-05-10T05:43:26;13.10;1.00
8152;DHT22;4117;53.622;9.958;2023-05-10T05:45:54;13.30;1.00
8152;DHT22;4117;53.622;9.958;2023-05-10T05:48:23;13.30;1.00
8152;DHT22;4117;53.622;9.958;2023-05-10T05:50:50;13.40;1.00
8152;DHT22;4117;53.622;9.958;2023-05-10T05:53:20;13.40;1.00
8152;DHT22;4117;53.622;9.958;2023-05-10T05:55:54;13.50;1.00
8152;DHT22;4117;53.622;9.958;2023-05-10T05:58:21;13.50;1.00
8152;DHT22;4117;53.622;9.958;2023-05-10T06:00:49;13.60;1.00
8152;DHT22;4117;53.622;9.958;2023-05-10T06:03:18;13.70;1.00
8152;DHT22;4117;53.622;9.958;2023-05-10T06:05:47;13.80;1.00
8152;DHT22;4117;53.622;9.958;2023-05-10T06:08:13;13.80;1.00
8152;DHT22;4117;53.622;9.958;2023-05-10T06:10:40;13.80;1.00
8152;DHT22;4117;53.622;9.958;2023-05-10T06:13:08;13.80;1.00
8152;DHT22;4117;53.622;9.958;2023-05-10T06:15:35;14.00;1.00
8152;DHT22;4117;53.622;9.958;2023-05-10T06:18:02;14.10;1.00
8152;DHT22;4117;53.622;9.958;2023-05-10T06:20:31;14.10;1.00
8152;DHT22;4117;53.622;9.958;2023-05-10T06:22:58;14.10;1.00
8152;DHT22;4117;53.622;9.958;2023-05-10T06:25:25;14.20;1.00
8152;DHT22;4117;53.622;9.958;2023-05-10T06:27:52;14.20;1.00
8152;DHT22;4117;53.622;9.958;2023-05-10T06:30:23;14.30;1.00
8152;DHT22;4117;53.622;9.958;2023-05-10T06:32:52;14.40;1.00
8152;DHT22;4117;53.622;9.958;2023-05-10T06:35:20;14.50;1.00
8152;DHT22;4117;53.622;9.958;2023-05-10T06:37:48;14.40;1.00
8152;DHT22;4117;53.622;9.958;2023-05-10T06:40:16;14.50;1.00
8152;DHT22;4117;53.622;9.958;2023-05-10T06:42:43;14.60;1.00
8152;DHT22;4117;53.622;9.958;2023-05-10T06:45:12;14.50;1.00
8152;DHT22;4117;53.622;9.958;2023-05-10T06:47:39;14.40;1.00
8152;DHT22;4117;53.622;9.958;2023-05-10T06:50:07;14.40;1.00
8152;DHT22;4117;53.622;9.958;2023-05-10T06:52:34;14.30;1.00
8152;DHT22;4117;53.622;9.958;2023-05-10T06:55:03;14.30;1.00
8152;DHT22;4117;53.622;9.958;2023-05-10T06:57:30;14.30;1.00
8152;DHT22;4117;53.622;9.958;2023-05-10T06:59:58;14.40;1.00
8152;DHT22;4117;53.622;9.958;2023-05-10T07:02:24;14.50;1.00
8152;DHT22;4117;53.622;9.958;2023-05-10T07:04:51;14.50;1.00
8152;DHT22;4117;53.622;9.958;2023-05-10T07:07:18;14.60;1.00
8152;DHT22;4117;53.622;9.958;2023-05-10T07:09:46;14.80;1.00
8152;DHT22;4117;53.622;9.958;2023-05-10T07:12:14;15.00;1.00
8152;DHT22;4117;53.622;9.958;2023-05-10T07:14:41;15.20;1.00
8152;DHT22;4117;53.622;9.958;2023-05-10T07:17:08;15.30;1.00
8152;DHT22;4117;53.622;9.958;2023-05-10T07:19:35;15.20;1.00
8152;DHT22;4117;53.622;9.958;2023-05-10T07:22:02;15.10;1.00
8152;DHT22;4117;53.622;9.958;2023-05-10T07:24:29;15.20;1.00
8152;DHT22;4117;53.622;9.958;2023-05-10T07:26:56;15.40;1.00
8152;DHT22;4117;53.622;9.958;2023-05-10T07:29:25;15.60;1.00
8152;DHT22;4117;53.622;9.958;2023-05-10T07:31:52;15.80;1.00
8152;DHT22;4117;53.622;9.958;2023-05-10T07:34:19;15.80;1.00
8152;DHT22;4117;53.622;9.958;2023-05-10T07:36:46;15.80;1.00
8152;DHT22;4117;53.622;9.958;2023-05-10T07:39:13;15.80;1.00
8152;DHT22;4117;53.622;9.958;2023-05-10T07:41:40;15.70;1.00
8152;DHT22;4117;53.622;9.958;2023-05-10T07:44:07;15.50;1.00
8152;DHT22;4117;53.622;9.958;2023-05-10T07:46:35;15.50;1.00
8152;DHT22;4117;53.622;9.958;2023-05-10T07:49:02;15.60;1.00
8152;DHT22;4117;53.622;9.958;2023-05-10T07:51:29;15.60;1.00
8152;DHT22;4117;53.622;9.958;2023-05-10T07:53:56;15.70;1.00
8152;DHT22;4117;53.622;9.958;2023-05-10T07:56:24;15.80;1.00
8152;DHT22;4117;53.622;9.958;2023-05-10T07:58:53;15.80;1.00
8152;DHT22;4117;53.622;9.958;2023-05-10T08:01:20;15.80;1.00
8152;DHT22;4117;53.622;9.958;2023-05-10T08:03:49;15.70;1.00
8152;DHT22;4117;53.622;9.958;2023-05-10T08:06:17;15.70;1.00
8152;DHT22;4117;53.622;9.958;2023-05-10T08:08:45;15.70;1.00
8152;DHT22;4117;53.622;9.958;2023-05-10T08:11:14;15.70;1.00
8152;DHT22;4117;53.622;9.958;2023-05-10T08:13:41;15.80;1.00
8152;DHT22;4117;53.622;9.958;2023-05-10T08:16:08;15.80;1.00
8152;DHT22;4117;53.622;9.958;2023-05-10T08:18:35;15.80;1.00
8152;DHT22;4117;53.622;9.958;2023-05-10T08:21:03;15.80;1.00
8152;DHT22;4117;53.622;9.958;2023-05-10T08:23:30;15.80;1.00
8152;DHT22;4117;53.622;9.958;2023-05-10T08:25:57;15.70;1.00
8152;DHT22;4117;53.622;9.958;2023-05-10T08:28:24;15.80;1.00
8152;DHT22;4117;53.622;9.958;2023-05-10T08:30:51;15.80;1.00
8152;DHT22;4117;53.622;9.958;2023-05-10T08:33:18;15.80;1.00
8152;DHT22;4117;53.622;9.958;2023-05-10T08:35:45;15.80;1.00
8152;DHT22;4117;53.622;9.958;2023-05-10T08:38:14;15.80;1.00
8152;DHT22;4117;53.622;9.958;2023-05-10T08:40:42;15.90;1.00
8152;DHT22;4117;53.622;9.958;2023-05-10T08:43:11;15.90;1.00
8152;DHT22;4117;53.622;9.958;2023-05-10T08:45:40;15.90;1.00
8152;DHT22;4117;53.622;9.958;2023-05-10T08:48:08;15.90;1.00
8152;DHT22;4117;53.622;9.958;2023-05-10T08:50:36;15.90;1.00
8152;DHT22;4117;53.622;9.958;2023-05-10T08:53:06;16.00;1.00
8152;DHT22;4117;53.622;9.958;2023-05-10T08:55:34;15.90;1.00
8152;DHT22;4117;53.622;9.958;2023-05-10T08:58:04;16.00;1.00
8152;DHT22;4117;53.622;9.958;2023-05-10T09:00:31;16.00;1.00
8152;DHT22;4117;53.622;9.958;2023-05-10T09:02:58;16.00;1.00
8152;DHT22;4117;53.622;9.958;2023-05-10T09:05:25;16.00;1.00
8152;DHT22;4117;53.622;9.958;2023-05-10T09:07:52;16.10;1.00
8152;DHT22;4117;53.622;9.958;2023-05-10T09:10:20;16.20;1.00
8152;DHT22;4117;53.622;9.958;2023-05-10T09:12:48;16.20;1.00
8152;DHT22;4117;53.622;9.958;2023-05-10T09:15:16;16.30;1.00
8152;DHT22;4117;53.622;9.958;2023-05-10T09:17:45;16.30;1.00
8152;DHT22;4117;53.622;9.958;2023-05-10T09:20:12;16.30;1.00
8152;DHT22;4117;53.622;9.958;2023-05-10T09:22:39;16.30;1.00
8152;DHT22;4117;53.622;9.958;2023-05-10T09:25:07;16.30;1.00
8152;DHT22;4117;53.622;9.958;2023-05-10T09:27:35;16.30;1.00
8152;DHT22;4117;53.622;9.958;2023-05-10T09:30:04;16.40;1.00
8152;DHT22;4117;53.622;9.958;2023-05-10T09:32:39;16.40;1.00
8152;DHT22;4117;53.622;9.958;2023-05-10T09:35:07;16.30;1.00
8152;DHT22;4117;53.622;9.958;2023-05-10T09:37:34;16.30;1.00
8152;DHT22;4117;53.622;9.958;2023-05-10T09:40:05;16.30;1.00
8152;DHT22;4117;53.622;9.958;2023-05-10T09:42:33;16.30;1.00
8152;DHT22;4117;53.622;9.958;2023-05-10T09:45:04;16.20;1.00
8152;DHT22;4117;53.622;9.958;2023-05-10T09:47:33;16.20;1.00
8152;DHT22;4117;53.622;9.958;2023-05-10T09:50:00;16.20;1.00
8152;DHT22;4117;53.622;9.958;2023-05-10T09:52:30;16.20;1.00
8152;DHT22;4117;53.622;9.958;2023-05-10T09:54:57;16.10;1.00
8152;DHT22;4117;53.622;9.958;2023-05-10T09:57:25;16.10;1.00
8152;DHT22;4117;53.622;9.958;2023-05-10T09:59:52;16.10;1.00
8152;DHT22;4117;53.622;9.958;2023-05-10T10:02:28;16.00;1.00
8152;DHT22;4117;53.622;9.958;2023-05-10T10:04:55;16.00;1.00
8152;DHT22;4117;53.622;9.958;2023-05-10T10:07:25;15.90;1.00
8152;DHT22;4117;53.622;9.958;2023-05-10T10:09:52;15.90;1.00
8152;DHT22;4117;53.622;9.958;2023-05-10T10:12:19;15.80;1.00
8152;DHT22;4117;53.622;9.958;2023-05-10T10:14:47;15.70;1.00
8152;DHT22;4117;53.622;9.958;2023-05-10T10:17:15;15.70;1.00
8152;DHT22;4117;53.622;9.958;2023-05-10T10:19:43;15.60;1.00
8152;DHT22;4117;53.622;9.958;2023-05-10T10:22:11;15.60;1.00
8152;DHT22;4117;53.622;9.958;2023-05-10T10:24:38;15.50;1.00
8152;DHT22;4117;53.622;9.958;2023-05-10T10:27:15;15.50;1.00
8152;DHT22;4117;53.622;9.958;2023-05-10T10:29:52;15.40;1.00
8152;DHT22;4117;53.622;9.958;2023-05-10T10:32:27;15.40;1.00
8152;DHT22;4117;53.622;9.958;2023-05-10T10:34:58;15.30;1.00
8152;DHT22;4117;53.622;9.958;2023-05-10T10:37:40;15.20;1.00
8152;DHT22;4117;53.622;9.958;2023-05-10T10:40:26;15.20;1.00
8152;DHT22;4117;53.622;9.958;2023-05-10T10:42:53;15.20;1.00
8152;DHT22;4117;53.622;9.958;2023-05-10T10:45:21;15.10;1.00
8152;DHT22;4117;53.622;9.958;2023-05-10T10:47:49;15.10;1.00
8152;DHT22;4117;53.622;9.958;2023-05-10T10:50:21;15.00;1.00
8152;DHT22;4117;53.622;9.958;2023-05-10T10:52:51;15.00;1.00
8152;DHT22;4117;53.622;9.958;2023-05-10T10:55:19;15.00;1.00
8152;DHT22;4117;53.622;9.958;2023-05-10T10:57:48;14.90;1.00
8152;DHT22;4117;53.622;9.958;2023-05-10T11:00:24;14.90;1.00
8152;DHT22;4117;53.622;9.958;2023-05-10T11:02:53;14.90;1.00
8152;DHT22;4117;53.622;9.958;2023-05-10T11:05:41;14.90;1.00
8152;DHT22;4117;53.622;9.958;2023-05-10T11:08:17;14.80;1.00
8152;DHT22;4117;53.622;9.958;2023-05-10T11:10:52;14.80;1.00
8152;DHT22;4117;53.622;9.958;2023-05-10T11:13:30;14.80;1.00
8152;DHT22;4117;53.622;9.958;2023-05-10T11:15:59;14.70;1.00
8152;DHT22;4117;53.622;9.958;2023-05-10T11:18:27;14.60;1.00
8152;DHT22;4117;53.622;9.958;2023-05-10T11:20:58;14.60;1.00
8152;DHT22;4117;53.622;9.958;2023-05-10T11:23:30;14.70;1.00
8152;DHT22;4117;53.622;9.958;2023-05-10T11:25:58;14.70;1.00
8152;DHT22;4117;53.622;9.958;2023-05-10T11:28:26;14.70;1.00
8152;DHT22;4117;53.622;9.958;2023-05-10T11:30:52;14.70;1.00
8152;DHT22;4117;53.622;9.958;2023-05-10T11:33:20;14.70;1.00
8152;DHT22;4117;53.622;9.958;2023-05-10T11:35:47;14.70;1.00
8152;DHT22;4117;53.622;9.958;2023-05-10T11:38:15;14.70;1.00
8152;DHT22;4117;53.622;9.958;2023-05-10T11:40:42;14.60;1.00
8152;DHT22;4117;53.622;9.958;2023-05-10T11:43:09;14.60;1.00
8152;DHT22;4117;53.622;9.958;2023-05-10T11:45:37;14.60;1.00
8152;DHT22;4117;53.622;9.958;2023-05-10T11:48:05;14.60;1.00
8152;DHT22;4117;53.622;9.958;2023-05-10T11:50:32;14.60;1.00
8152;DHT22;4117;53.622;9.958;2023-05-10T11:52:59;14.60;1.00
8152;DHT22;4117;53.622;9.958;2023-05-10T11:55:27;14.70;1.00
8152;DHT22;4117;53.622;9.958;2023-05-10T11:57:59;14.60;1.00
8152;DHT22;4117;53.622;9.958;2023-05-10T12:00:26;14.60;1.00
8152;DHT22;4117;53.622;9.958;2023-05-10T12:02:53;14.60;1.00
8152;DHT22;4117;53.622;9.958;2023-05-10T12:05:20;14.60;1.00
8152;DHT22;4117;53.622;9.958;2023-05-10T12:07:48;14.60;1.00
8152;DHT22;4117;53.622;9.958;2023-05-10T12:10:15;14.70;1.00
8152;DHT22;4117;53.622;9.958;2023-05-10T12:12:45;14.60;1.00
8152;DHT22;4117;53.622;9.958;2023-05-10T12:15:17;14.60;1.00
8152;DHT22;4117;53.622;9.958;2023-05-10T12:17:45;14.60;1.00
8152;DHT22;4117;53.622;9.958;2023-05-10T12:20:19;14.70;1.00
8152;DHT22;4117;53.622;9.958;2023-05-10T12:22:51;14.70;1.00
8152;DHT22;4117;53.622;9.958;2023-05-10T12:25:19;14.70;1.00
8152;DHT22;4117;53.622;9.958;2023-05-10T12:27:53;14.70;1.00
8152;DHT22;4117;53.622;9.958;2023-05-10T12:30:21;14.60;1.00
8152;DHT22;4117;53.622;9.958;2023-05-10T12:32:49;14.60;1.00
8152;DHT22;4117;53.622;9.958;2023-05-10T12:35:16;14.70;1.00
8152;DHT22;4117;53.622;9.958;2023-05-10T12:37:46;14.80;1.00
8152;DHT22;4117;53.622;9.958;2023-05-10T12:40:13;14.70;1.00
8152;DHT22;4117;53.622;9.958;2023-05-10T12:42:40;14.80;1.00
8152;DHT22;4117;53.622;9.958;2023-05-10T12:45:09;14.80;1.00
8152;DHT22;4117;53.622;9.958;2023-05-10T12:47:36;14.80;1.00
8152;DHT22;4117;53.622;9.958;2023-05-10T12:50:05;14.80;1.00
8152;DHT22;4117;53.622;9.958;2023-05-10T12:52:32;14.80;1.00
8152;DHT22;4117;53.622;9.958;2023-05-10T12:54:59;14.80;1.00
8152;DHT22;4117;53.622;9.958;2023-05-10T12:57:27;14.90;1.00
8152;DHT22;4117;53.622;9.958;2023-05-10T12:59:54;14.90;1.00
8152;DHT22;4117;53.622;9.958;2023-05-10T13:02:22;14.90;1.00
8152;DHT22;4117;53.622;9.958;2023-05-10T13:04:50;14.90;1.00
8152;DHT22;4117;53.622;9.958;2023-05-10T13:07:17;14.90;1.00
8152;DHT22;4117;53.622;9.958;2023-05-10T13:09:44;14.90;1.00
8152;DHT22;4117;53.622;9.958;2023-05-10T13:12:11;14.90;1.00
8152;DHT22;4117;53.622;9.958;2023-05-10T13:14:38;15.00;1.00
8152;DHT22;4117;53.622;9.958;2023-05-10T13:17:06;15.10;1.00
8152;DHT22;4117;53.622;9.958;2023-05-10T13:19:35;15.00;1.00
8152;DHT22;4117;53.622;9.958;2023-05-10T13:22:02;15.10;1.00
8152;DHT22;4117;53.622;9.958;2023-05-10T13:24:30;15.20;1.00
8152;DHT22;4117;53.622;9.958;2023-05-10T13:26:57;15.30;1.00
8152;DHT22;4117;53.622;9.958;2023-05-10T13:29:24;15.20;1.00
8152;DHT22;4117;53.622;9.958;2023-05-10T13:31:51;15.20;1.00
8152;DHT22;4117;53.622;9.958;2023-05-10T13:34:18;15.30;1.00
8152;DHT22;4117;53.622;9.958;2023-05-10T13:36:48;15.20;1.00
8152;DHT22;4117;53.622;9.958;2023-05-10T13:39:15;15.10;1.00
8152;DHT22;4117;53.622;9.958;2023-05-10T13:41:42;15.20;1.00
8152;DHT22;4117;53.622;9.958;2023-05-10T13:44:11;15.20;1.00
8152;DHT22;4117;53.622;9.958;2023-05-10T13:46:38;15.30;1.00
8152;DHT22;4117;53.622;9.958;2023-05-10T13:49:05;15.40;1.00
8152;DHT22;4117;53.622;9.958;2023-05-10T13:51:33;15.40;1.00
8152;DHT22;4117;53.622;9.958;2023-05-10T13:54:02;15.40;1.00
8152;DHT22;4117;53.622;9.958;2023-05-10T13:56:29;15.40;1.00
8152;DHT22;4117;53.622;9.958;2023-05-10T13:58:57;15.50;1.00
8152;DHT22;4117;53.622;9.958;2023-05-10T14:01:24;15.50;1.00
8152;DHT22;4117;53.622;9.958;2023-05-10T14:03:50;15.50;1.00
8152;DHT22;4117;53.622;9.958;2023-05-10T14:06:17;15.50;1.00
8152;DHT22;4117;53.622;9.958;2023-05-10T14:08:44;15.60;1.00
8152;DHT22;4117;53.622;9.958;2023-05-10T14:11:13;15.60;1.00
8152;DHT22;4117;53.622;9.958;2023-05-10T14:13:40;15.70;1.00
8152;DHT22;4117;53.622;9.958;2023-05-10T14:16:07;15.80;1.00
8152;DHT22;4117;53.622;9.958;2023-05-10T14:18:35;15.70;1.00
8152;DHT22;4117;53.622;9.958;2023-05-10T14:21:02;15.70;1.00
8152;DHT22;4117;53.622;9.958;2023-05-10T14:23:30;15.70;1.00
8152;DHT22;4117;53.622;9.958;2023-05-10T14:25:57;15.70;1.00
8152;DHT22;4117;53.622;9.958;2023-05-10T14:28:25;15.80;1.00
8152;DHT22;4117;53.622;9.958;2023-05-10T14:30:52;15.70;1.00
8152;DHT22;4117;53.622;9.958;2023-05-10T14:33:19;15.70;1.00
8152;DHT22;4117;53.622;9.958;2023-05-10T14:35:46;15.70;1.00
8152;DHT22;4117;53.622;9.958;2023-05-10T14:38:13;15.70;1.00
8152;DHT22;4117;53.622;9.958;2023-05-10T14:40:40;15.80;1.00
8152;DHT22;4117;53.622;9.958;2023-05-10T14:43:07;15.80;1.00
8152;DHT22;4117;53.622;9.958;2023-05-10T14:45:36;15.80;1.00
8152;DHT22;4117;53.622;9.958;2023-05-10T14:48:03;15.80;1.00
8152;DHT22;4117;53.622;9.958;2023-05-10T14:50:30;15.80;1.00
8152;DHT22;4117;53.622;9.958;2023-05-10T14:52:57;15.80;1.00
8152;DHT22;4117;53.622;9.958;2023-05-10T14:55:24;15.90;1.00
8152;DHT22;4117;53.622;9.958;2023-05-10T14:57:51;15.90;1.00
8152;DHT22;4117;53.622;9.958;2023-05-10T15:00:19;15.90;1.00
8152;DHT22;4117;53.622;9.958;2023-05-10T15:02:47;15.90;1.00
8152;DHT22;4117;53.622;9.958;2023-05-10T15:05:15;15.90;1.00
8152;DHT22;4117;53.622;9.958;2023-05-10T15:07:41;15.90;1.00
8152;DHT22;4117;53.622;9.958;2023-05-10T15:10:09;15.90;1.00
8152;DHT22;4117;53.622;9.958;2023-05-10T15:12:37;15.90;1.00
8152;DHT22;4117;53.622;9.958;2023-05-10T15:15:05;16.00;1.00
8152;DHT22;4117;53.622;9.958;2023-05-10T15:17:32;15.90;1.00
8152;DHT22;4117;53.622;9.958;2023-05-10T15:20:01;15.90;1.00
8152;DHT22;4117;53.622;9.958;2023-05-10T15:22:29;16.00;1.00
8152;DHT22;4117;53.622;9.958;2023-05-10T15:24:57;15.90;1.00
8152;DHT22;4117;53.622;9.958;2023-05-10T15:27:24;15.90;1.00
8152;DHT22;4117;53.622;9.958;2023-05-10T15:29:51;16.00;1.00
8152;DHT22;4117;53.622;9.958;2023-05-10T15:32:17;16.00;1.00
8152;DHT22;4117;53.622;9.958;2023-05-10T15:34:44;16.00;1.00
8152;DHT22;4117;53.622;9.958;2023-05-10T15:37:13;16.00;1.00
8152;DHT22;4117;53.622;9.958;2023-05-10T15:39:40;16.10;1.00
8152;DHT22;4117;53.622;9.958;2023-05-10T15:42:06;16.10;1.00
8152;DHT22;4117;53.622;9.958;2023-05-10T15:44:33;16.00;1.00
8152;DHT22;4117;53.622;9.958;2023-05-10T15:47:04;16.00;1.00
8152;DHT22;4117;53.622;9.958;2023-05-10T15:49:30;16.00;1.00
8152;DHT22;4117;53.622;9.958;2023-05-10T15:51:57;16.00;1.00
8152;DHT22;4117;53.622;9.958;2023-05-10T15:54:26;16.00;1.00
8152;DHT22;4117;53.622;9.958;2023-05-10T15:56:52;16.00;1.00
8152;DHT22;4117;53.622;9.958;2023-05-10T15:59:19;16.00;1.00
8152;DHT22;4117;53.622;9.958;2023-05-10T16:01:46;16.00;1.00
8152;DHT22;4117;53.622;9.958;2023-05-10T16:04:14;16.00;1.00
8152;DHT22;4117;53.622;9.958;2023-05-10T16:06:41;16.00;1.00
8152;DHT22;4117;53.622;9.958;2023-05-10T16:09:07;16.00;1.00
8152;DHT22;4117;53.622;9.958;2023-05-10T16:11:36;16.00;1.00
8152;DHT22;4117;53.622;9.958;2023-05-10T16:14:03;15.90;1.00
8152;DHT22;4117;53.622;9.958;2023-05-10T16:16:30;15.80;1.00
8152;DHT22;4117;53.622;9.958;2023-05-10T16:18:57;15.80;1.00
8152;DHT22;4117;53.622;9.958;2023-05-10T16:21:26;15.80;1.00
8152;DHT22;4117;53.622;9.958;2023-05-10T16:23:53;15.70;1.00
8152;DHT22;4117;53.622;9.958;2023-05-10T16:26:20;15.70;1.00
8152;DHT22;4117;53.622;9.958;2023-05-10T16:28:49;15.70;1.00
8152;DHT22;4117;53.622;9.958;2023-05-10T16:31:15;15.70;1.00